Accueil
METAR-TAF:

METAR-TAF

Aéroports :

Aéroport d'Ajaccio-Napoléon-Bonaparte

Ajaccio, France

latitude: 41-55N, longitude: 008-48E, altitude: 6 m

Observation

Le bulletin a été fait il y a 10 minutes, à 10:30 UTC
Vent 10 kt de sud/sud-ouest
Température 29°C
Humidité 52%
Pression 1013 hPa
Visibilité 10 km ou plus
pas de nuages en-dessous de 1500 mètres et pas de cumulonimbus.

METAR: LFKJ 301030Z AUTO 21010KT CAVOK 29/18 Q1013 NOSIG

Heure: 12:40 (10:40 UTC)

Prévision

Le bulletin a été fait il y a 2 heures et 40 minutes, à 08:00 UTC
Prévision valable du 30 à 09 UTC au 01 à 09 UTC
Vent 10 kt de sud-ouest
Visibilité 10 km ou plus
pas de nuages en-dessous de 1500 mètres et pas de cumulonimbus.
Evoluant progressivement
du 30 à 18 UTC au 30 à 20 UTC
Vent 6 kt de nord-est

TAF: LFKJ 300800Z 3009/0109 23010KT CAVOK BECMG 3018/3020 05006KT

Observations et prévisions météorologiques de plus de 4000 aéroports (messages METAR et TAF).

Les stations disponibles sont représentées par des disques jaunes et rouges sur la carte.

Passer la souris dessus pour voir le nom de la station.

Cliquer dessus pour voir les observations et prévisions météorologiques.

Pour changer de carte: cliquez sur les boutons verts avec une croix noire pour zoomer, sur le bouton vert avec un tiret pour effectuer un zoom arrière, ou sur les flèches vertes pour les cartes adjacentes.


METAR-TAF: